Wind From: 13-12-2017 10:08 Until: 14-12-2017 06:00 warning for: Wind Level: Yellow info button

Although rather usual in this region, locally or potentially dangerous phenomena are expected. (such as local winds, summer thunderstorms, rising streams or high waves) Be aware and pay attention to the latest weather updates, especially if you carry out activities exposed to weather or close to a stream or shoreline. 


Meteo18 Weather Cam more information Meteo18 Weather Cam


Thunder radar more information blitzortung!


Rain radar more information rain snow radar


Visit our other weather sites:

Template documentation
and downloads

And another site



Weather Underground History page Text

Daily Summary for April 18, 2017 Units:  Metric    English   Both
« Previous Day
Next Day »
Daily Weekly Monthly Yearly Custom
  High: Low: Average:
Temperature: 11.2 °C 2.7 °C 6.7 °C
Dew Point: 4.9 °C -0.9 °C 1.6 °C
Humidity: 88 % 46 % 72 %
Wind Speed: 25.7 km/h 0.0 km/h 6.4 km/h
Wind Gust: 33.8 km/h - -
Wind:- - SSE
Pressure: 1029.3 hPa 1023.2 hPa -
Precipitation: 0.0 mm    
Historical Graphs
 
 
Tabular Data for April 18, 2017
Time Temperature Dew Point Pressure Wind Wind Speed Wind Gust Humidity Rainfall Rate (Hourly)
00:02 8.8 °C 4.8 °C 1023.2 hPa Calm   17.7 km/h 76 % 0.0 mm
00:07 8.7 °C 4.9 °C 1023.2 hPa NNE 6.4 km/h 12.9 km/h 77 % 0.0 mm
00:12 8.7 °C 4.9 °C 1023.2 hPa NE 3.2 km/h 12.9 km/h 77 % 0.0 mm
00:22 8.6 °C 4.6 °C 1023.6 hPa NNW 3.2 km/h 12.9 km/h 76 % 0.0 mm
00:27 8.4 °C 4.6 °C 1023.6 hPa NE 9.7 km/h 14.5 km/h 77 % 0.0 mm
00:32 8.3 °C 4.5 °C 1023.6 hPa East 1.6 km/h 14.5 km/h 77 % 0.0 mm
00:42 8.0 °C 4.2 °C 1023.6 hPa Calm   12.9 km/h 77 % 0.0 mm
00:47 7.7 °C 4.1 °C 1023.6 hPa Calm   9.7 km/h 78 % 0.0 mm
00:52 7.5 °C 4.1 °C 1023.6 hPa Calm   9.7 km/h 79 % 0.0 mm
00:57 7.3 °C 3.9 °C 1023.6 hPa Calm   4.8 km/h 79 % 0.0 mm
01:02 7.2 °C 4.0 °C 1023.6 hPa NE 4.8 km/h 4.8 km/h 80 % 0.0 mm
01:07 7.2 °C 4.0 °C 1023.6 hPa NE 4.8 km/h 6.4 km/h 80 % 0.0 mm
01:12 6.9 °C 3.7 °C 1023.6 hPa NNE 3.2 km/h 6.4 km/h 80 % 0.0 mm
01:17 6.6 °C 3.6 °C 1023.6 hPa Calm   6.4 km/h 81 % 0.0 mm
01:22 6.4 °C 3.6 °C 1023.6 hPa Calm   6.4 km/h 82 % 0.0 mm
01:27 6.4 °C 3.7 °C 1023.6 hPa NNW 1.6 km/h 6.4 km/h 83 % 0.0 mm
01:32 6.3 °C 3.5 °C 1023.6 hPa NNW 3.2 km/h 4.8 km/h 82 % 0.0 mm
01:37 6.2 °C 3.5 °C 1023.6 hPa Calm   4.8 km/h 83 % 0.0 mm
01:42 6.1 °C 3.4 °C 1023.6 hPa North 1.6 km/h 4.8 km/h 83 % 0.0 mm
01:52 5.8 °C 3.3 °C 1023.9 hPa Calm   4.8 km/h 84 % 0.0 mm
01:57 5.8 °C 3.3 °C 1023.9 hPa Calm   3.2 km/h 84 % 0.0 mm
02:02 5.7 °C 3.2 °C 1023.6 hPa NW 1.6 km/h 3.2 km/h 84 % 0.0 mm
02:07 5.7 °C 3.4 °C 1023.9 hPa NW 1.6 km/h 3.2 km/h 85 % 0.0 mm
02:12 5.6 °C 3.3 °C 1023.6 hPa Calm   3.2 km/h 85 % 0.0 mm
02:17 5.6 °C 3.3 °C 1023.9 hPa Calm   3.2 km/h 85 % 0.0 mm
02:22 5.5 °C 3.2 °C 1023.9 hPa NW 1.6 km/h 3.2 km/h 85 % 0.0 mm
02:27 5.4 °C 3.1 °C 1023.9 hPa Calm   3.2 km/h 85 % 0.0 mm
02:32 5.4 °C 3.1 °C 1023.9 hPa Calm   3.2 km/h 85 % 0.0 mm
02:37 5.3 °C 3.1 °C 1023.9 hPa NW 1.6 km/h 3.2 km/h 86 % 0.0 mm
02:42 5.3 °C 3.1 °C 1023.9 hPa NW 1.6 km/h 3.2 km/h 86 % 0.0 mm
02:47 5.3 °C 3.1 °C 1023.9 hPa Calm   3.2 km/h 86 % 0.0 mm
02:52 5.4 °C 3.2 °C 1023.6 hPa NW 1.6 km/h 3.2 km/h 86 % 0.0 mm
02:57 5.4 °C 3.2 °C 1023.9 hPa NNW 1.6 km/h 3.2 km/h 86 % 0.0 mm
03:02 5.3 °C 3.1 °C 1023.6 hPa Calm   3.2 km/h 86 % 0.0 mm
03:07 5.3 °C 3.1 °C 1023.6 hPa NNW 1.6 km/h 4.8 km/h 86 % 0.0 mm
03:12 5.2 °C 3.1 °C 1023.6 hPa Calm   4.8 km/h 86 % 0.0 mm
03:17 5.1 °C 3.0 °C 1023.6 hPa Calm   4.8 km/h 86 % 0.0 mm
03:22 5.1 °C 3.0 °C 1023.6 hPa Calm   3.2 km/h 86 % 0.0 mm
03:27 5.1 °C 3.0 °C 1023.6 hPa Calm   3.2 km/h 86 % 0.0 mm
03:32 5.0 °C 2.9 °C 1023.6 hPa WNW 1.6 km/h 3.2 km/h 86 % 0.0 mm
03:37 4.9 °C 2.8 °C 1023.6 hPa Calm   3.2 km/h 86 % 0.0 mm
03:42 4.9 °C 2.8 °C 1023.6 hPa Calm   3.2 km/h 86 % 0.0 mm
03:47 4.9 °C 2.8 °C 1023.6 hPa NW 1.6 km/h 1.6 km/h 86 % 0.0 mm
03:52 4.8 °C 2.7 °C 1023.6 hPa NW 1.6 km/h 1.6 km/h 86 % 0.0 mm
03:57 4.7 °C 2.6 °C 1023.6 hPa Calm   1.6 km/h 86 % 0.0 mm
04:02 4.6 °C 2.6 °C 1023.6 hPa NW 1.6 km/h 1.6 km/h 87 % 0.0 mm
04:07 4.6 °C 2.6 °C 1023.6 hPa Calm   3.2 km/h 87 % 0.0 mm
04:12 4.5 °C 2.5 °C 1023.6 hPa Calm   3.2 km/h 87 % 0.0 mm
04:17 4.4 °C 2.3 °C 1023.9 hPa West 3.2 km/h 3.2 km/h 86 % 0.0 mm
04:22 4.4 °C 2.6 °C 1023.6 hPa NW 1.6 km/h 4.8 km/h 88 % 0.0 mm
04:27 4.5 °C 2.7 °C 1023.9 hPa NW 3.2 km/h 4.8 km/h 88 % 0.0 mm
04:32 4.6 °C 2.8 °C 1023.9 hPa NW 3.2 km/h 4.8 km/h 88 % 0.0 mm
04:37 4.7 °C 2.7 °C 1023.9 hPa WNW 1.6 km/h 4.8 km/h 87 % 0.0 mm
04:47 4.5 °C 2.5 °C 1023.9 hPa NW 1.6 km/h 4.8 km/h 87 % 0.0 mm
04:52 4.4 °C 2.6 °C 1023.9 hPa NW 1.6 km/h 4.8 km/h 88 % 0.0 mm
05:02 4.2 °C 2.4 °C 1023.9 hPa NW 1.6 km/h 4.8 km/h 88 % 0.0 mm
05:12 4.0 °C 2.2 °C 1023.9 hPa NNW 3.2 km/h 3.2 km/h 88 % 0.0 mm
05:17 3.9 °C 2.1 °C 1024.3 hPa NNW 6.4 km/h 6.4 km/h 88 % 0.0 mm
05:22 4.0 °C 2.2 °C 1024.3 hPa North 3.2 km/h 12.9 km/h 88 % 0.0 mm
05:27 4.0 °C 2.2 °C 1024.3 hPa NNW 8.0 km/h 12.9 km/h 88 % 0.0 mm
05:32 4.0 °C 2.2 °C 1024.3 hPa NW 3.2 km/h 12.9 km/h 88 % 0.0 mm
05:37 4.0 °C 2.2 °C 1024.3 hPa NNE 4.8 km/h 12.9 km/h 88 % 0.0 mm
05:42 3.9 °C 2.1 °C 1024.3 hPa NW 1.6 km/h 12.9 km/h 88 % 0.0 mm
05:52 3.7 °C 1.9 °C 1024.3 hPa NNE 1.6 km/h 9.7 km/h 88 % 0.0 mm
06:02 3.6 °C 1.6 °C 1024.3 hPa ENE 1.6 km/h 8.0 km/h 87 % 0.0 mm
06:07 3.5 °C 1.5 °C 1024.3 hPa NE 1.6 km/h 9.7 km/h 87 % 0.0 mm
06:12 3.3 °C 1.3 °C 1024.3 hPa NNE 4.8 km/h 9.7 km/h 87 % 0.0 mm
06:17 3.3 °C 1.3 °C 1024.3 hPa NNE 1.6 km/h 6.4 km/h 87 % 0.0 mm
06:22 3.2 °C 1.1 °C 1024.3 hPa NNE 1.6 km/h 6.4 km/h 86 % 0.0 mm
06:32 2.9 °C 0.8 °C 1024.3 hPa Calm   6.4 km/h 86 % 0.0 mm
06:37 2.9 °C 0.8 °C 1024.6 hPa North 3.2 km/h 4.8 km/h 86 % 0.0 mm
06:42 2.9 °C 0.8 °C 1024.6 hPa NNW 6.4 km/h 6.4 km/h 86 % 0.0 mm
06:47 2.9 °C 0.6 °C 1024.6 hPa NNW 3.2 km/h 8.0 km/h 85 % 0.0 mm
06:52 3.0 °C 0.6 °C 1024.6 hPa NNE 1.6 km/h 8.0 km/h 84 % 0.0 mm
06:57 2.8 °C 0.4 °C 1024.6 hPa North 6.4 km/h 14.5 km/h 84 % 0.0 mm
07:02 2.7 °C 0.4 °C 1024.6 hPa North 1.6 km/h 14.5 km/h 85 % 0.0 mm
07:12 2.7 °C 0.4 °C 1024.9 hPa Calm   11.3 km/h 85 % 0.0 mm
07:17 2.8 °C 0.4 °C 1024.9 hPa NE 3.2 km/h 8.0 km/h 84 % 0.0 mm
07:22 2.9 °C 0.5 °C 1024.9 hPa NNE 4.8 km/h 8.0 km/h 84 % 0.0 mm
07:32 3.1 °C 0.5 °C 1024.9 hPa NE 1.6 km/h 6.4 km/h 83 % 0.0 mm
07:42 3.1 °C 0.3 °C 1024.9 hPa North 1.6 km/h 8.0 km/h 82 % 0.0 mm
07:47 3.2 °C 0.4 °C 1025.3 hPa NNE 1.6 km/h 8.0 km/h 82 % 0.0 mm
07:52 3.4 °C 0.6 °C 1025.3 hPa NNE 1.6 km/h 8.0 km/h 82 % 0.0 mm
07:57 3.6 °C 0.8 °C 1025.3 hPa Calm   4.8 km/h 82 % 0.0 mm
08:02 3.7 °C 0.9 °C 1025.6 hPa North 1.6 km/h 4.8 km/h 82 % 0.0 mm
08:12 4.1 °C 1.1 °C 1025.6 hPa North 4.8 km/h 12.9 km/h 81 % 0.0 mm
08:17 4.2 °C 1.1 °C 1025.6 hPa NNE 8.0 km/h 12.9 km/h 80 % 0.0 mm
08:22 4.3 °C 1.2 °C 1026.0 hPa North 6.4 km/h 12.9 km/h 80 % 0.0 mm
08:32 4.5 °C 1.2 °C 1026.0 hPa NNE 4.8 km/h 14.5 km/h 79 % 0.0 mm
08:37 4.7 °C 1.4 °C 1026.0 hPa NNE 6.4 km/h 17.7 km/h 79 % 0.0 mm
08:42 4.9 °C 1.6 °C 1026.0 hPa NW 4.8 km/h 17.7 km/h 79 % 0.0 mm
08:52 5.1 °C 1.0 °C 1026.0 hPa NNE 6.4 km/h 17.7 km/h 75 % 0.0 mm
08:57 5.3 °C 1.2 °C 1026.3 hPa NE 4.8 km/h 24.1 km/h 75 % 0.0 mm
09:07 5.5 °C 0.9 °C 1026.3 hPa East 4.8 km/h 20.9 km/h 72 % 0.0 mm
09:12 5.7 °C 0.9 °C 1026.3 hPa North 8.0 km/h 20.9 km/h 71 % 0.0 mm
09:17 5.8 °C 1.1 °C 1026.3 hPa NNE 16.1 km/h 20.9 km/h 72 % 0.0 mm
09:22 5.8 °C 0.8 °C 1026.3 hPa NNE 12.9 km/h 20.9 km/h 70 % 0.0 mm
09:32 5.9 °C 1.0 °C 1026.6 hPa NNE 12.9 km/h 20.9 km/h 71 % 0.0 mm
09:42 6.1 °C 1.2 °C 1026.6 hPa North 4.8 km/h 22.5 km/h 71 % 0.0 mm
09:52 6.2 °C 1.3 °C 1026.6 hPa NE 4.8 km/h 19.3 km/h 71 % 0.0 mm
10:02 6.4 °C 1.3 °C 1026.6 hPa ENE 4.8 km/h 19.3 km/h 70 % 0.0 mm
10:12 6.7 °C 1.4 °C 1026.6 hPa NE 8.0 km/h 20.9 km/h 69 % 0.0 mm
10:17 6.8 °C 1.7 °C 1026.6 hPa NE 6.4 km/h 20.9 km/h 70 % 0.0 mm
10:22 6.7 °C 0.8 °C 1026.6 hPa ENE 11.3 km/h 20.9 km/h 66 % 0.0 mm
10:32 7.2 °C 1.5 °C 1026.6 hPa ENE 4.8 km/h 24.1 km/h 67 % 0.0 mm
10:42 7.4 °C 1.0 °C 1026.6 hPa NE 9.7 km/h 24.1 km/h 64 % 0.0 mm
10:47 7.6 °C 1.0 °C 1027.0 hPa NE 6.4 km/h 22.5 km/h 63 % 0.0 mm
10:52 7.7 °C 0.9 °C 1027.0 hPa NE 8.0 km/h 22.5 km/h 62 % 0.0 mm
11:02 7.8 °C 0.3 °C 1027.0 hPa NNE 25.7 km/h 25.7 km/h 59 % 0.0 mm
11:12 8.1 °C 0.3 °C 1027.0 hPa NNE 16.1 km/h 27.4 km/h 58 % 0.0 mm
11:17 8.0 °C -0.2 °C 1027.0 hPa NE 4.8 km/h 27.4 km/h 56 % 0.0 mm
11:22 8.2 °C -0.1 °C 1027.0 hPa NNE 16.1 km/h 27.4 km/h 56 % 0.0 mm
11:32 8.8 °C 0.0 °C 1027.0 hPa NE 19.3 km/h 20.9 km/h 54 % 0.0 mm
11:37 8.7 °C -0.4 °C 1027.0 hPa NE 12.9 km/h 27.4 km/h 53 % 0.0 mm
11:42 8.8 °C 0.0 °C 1027.0 hPa NNE 9.7 km/h 27.4 km/h 54 % 0.0 mm
11:47 8.7 °C -0.4 °C 1027.0 hPa North 25.7 km/h 27.4 km/h 53 % 0.0 mm
11:52 8.8 °C 0.3 °C 1027.0 hPa NE 12.9 km/h 25.7 km/h 55 % 0.0 mm
11:57 8.9 °C 0.3 °C 1027.0 hPa East 9.7 km/h 25.7 km/h 55 % 0.0 mm
12:07 9.1 °C 0.8 °C 1027.0 hPa NNW 8.0 km/h 22.5 km/h 56 % 0.0 mm
12:12 9.2 °C 0.6 °C 1027.0 hPa NNW 14.5 km/h 20.9 km/h 55 % 0.0 mm
12:17 9.3 °C 0.2 °C 1027.0 hPa North 6.4 km/h 20.9 km/h 53 % 0.0 mm
12:22 9.2 °C -0.1 °C 1027.0 hPa NNE 8.0 km/h 22.5 km/h 52 % 0.0 mm
12:32 9.4 °C 0.0 °C 1027.0 hPa NE 12.9 km/h 25.7 km/h 52 % 0.0 mm
12:42 9.8 °C 0.9 °C 1027.0 hPa NNE 8.0 km/h 22.5 km/h 54 % 0.0 mm
12:47 9.8 °C -0.1 °C 1027.0 hPa NNW 12.9 km/h 22.5 km/h 50 % 0.0 mm
12:52 9.6 °C 0.0 °C 1027.0 hPa NNW 17.7 km/h 24.1 km/h 51 % 0.0 mm
12:57 9.9 °C 0.2 °C 1027.0 hPa NE 9.7 km/h 24.1 km/h 51 % 0.0 mm
13:02 10.1 °C -0.1 °C 1027.0 hPa NNE 12.9 km/h 24.1 km/h 49 % 0.0 mm
13:07 10.3 °C 0.6 °C 1027.0 hPa NE 9.7 km/h 24.1 km/h 51 % 0.0 mm
13:12 10.2 °C -0.6 °C 1027.0 hPa ENE 14.5 km/h 32.2 km/h 47 % 0.0 mm
13:17 10.2 °C -0.3 °C 1027.0 hPa NE 12.9 km/h 32.2 km/h 48 % 0.0 mm
13:22 10.3 °C -0.2 °C 1027.0 hPa NE 20.9 km/h 32.2 km/h 48 % 0.0 mm
13:27 10.4 °C -0.4 °C 1027.0 hPa NE 17.7 km/h 27.4 km/h 47 % 0.0 mm
13:32 10.3 °C 0.0 °C 1027.0 hPa ENE 9.7 km/h 27.4 km/h 49 % 0.0 mm
13:37 10.4 °C -0.1 °C 1026.6 hPa NNW 4.8 km/h 27.4 km/h 48 % 0.0 mm
13:42 10.7 °C 0.4 °C 1027.0 hPa North 11.3 km/h 29.0 km/h 49 % 0.0 mm
13:47 10.7 °C 0.1 °C 1027.0 hPa NE 8.0 km/h 29.0 km/h 48 % 0.0 mm
13:52 10.3 °C -0.8 °C 1026.6 hPa NNE 17.7 km/h 25.7 km/h 46 % 0.0 mm
13:57 10.2 °C 0.0 °C 1027.0 hPa NNW 14.5 km/h 25.7 km/h 49 % 0.0 mm
14:02 10.1 °C -0.4 °C 1027.0 hPa NNW 8.0 km/h 25.7 km/h 48 % 0.0 mm
14:07 10.5 °C 0.2 °C 1026.6 hPa NW 8.0 km/h 27.4 km/h 49 % 0.0 mm
14:12 10.5 °C -0.1 °C 1027.0 hPa NW 16.1 km/h 27.4 km/h 48 % 0.0 mm
14:17 10.4 °C 0.1 °C 1026.6 hPa WNW 6.4 km/h 30.6 km/h 49 % 0.0 mm
14:22 10.7 °C 0.4 °C 1026.6 hPa NW 11.3 km/h 30.6 km/h 49 % 0.0 mm
14:27 10.9 °C 0.3 °C 1027.0 hPa North 24.1 km/h 30.6 km/h 48 % 0.0 mm
14:32 10.7 °C -0.5 °C 1027.0 hPa NW 9.7 km/h 30.6 km/h 46 % 0.0 mm
14:42 10.2 °C -0.9 °C 1027.0 hPa North 14.5 km/h 32.2 km/h 46 % 0.0 mm
14:47 10.3 °C -0.2 °C 1026.6 hPa NNE 19.3 km/h 32.2 km/h 48 % 0.0 mm
14:52 10.4 °C 0.7 °C 1027.0 hPa NE 14.5 km/h 32.2 km/h 51 % 0.0 mm
14:57 10.2 °C -0.3 °C 1027.0 hPa NNE 24.1 km/h 29.0 km/h 48 % 0.0 mm
15:02 9.8 °C -0.4 °C 1027.0 hPa NNE 8.0 km/h 29.0 km/h 49 % 0.0 mm
15:07 10.1 °C 0.4 °C 1026.6 hPa NNE 9.7 km/h 29.0 km/h 51 % 0.0 mm
15:12 10.6 °C 0.6 °C 1026.6 hPa North 9.7 km/h 29.0 km/h 50 % 0.0 mm
15:17 10.7 °C -0.2 °C 1026.6 hPa NNE 8.0 km/h 25.7 km/h 47 % 0.0 mm
15:22 10.6 °C 0.9 °C 1026.6 hPa NNW 20.9 km/h 25.7 km/h 51 % 0.0 mm
15:27 10.4 °C 0.1 °C 1026.6 hPa NNE 8.0 km/h 20.9 km/h 49 % 0.0 mm
15:32 10.3 °C 0.6 °C 1026.6 hPa North 11.3 km/h 20.9 km/h 51 % 0.0 mm
15:37 10.2 °C 0.2 °C 1026.6 hPa NNW 14.5 km/h 22.5 km/h 50 % 0.0 mm
15:42 10.6 °C 0.6 °C 1026.6 hPa NNE 22.5 km/h 24.1 km/h 50 % 0.0 mm
15:47 10.7 °C 1.5 °C 1026.6 hPa East 6.4 km/h 29.0 km/h 53 % 0.0 mm
15:52 10.4 °C 1.2 °C 1026.6 hPa NE 4.8 km/h 29.0 km/h 53 % 0.0 mm
15:57 10.2 °C 0.8 °C 1026.6 hPa ENE 9.7 km/h 29.0 km/h 52 % 0.0 mm
16:02 10.7 °C 1.2 °C 1026.6 hPa NNE 12.9 km/h 29.0 km/h 52 % 0.0 mm
16:07 11.2 °C 1.4 °C 1026.6 hPa North 25.7 km/h 29.0 km/h 51 % 0.0 mm
16:12 11.2 °C 1.7 °C 1026.6 hPa NNE 17.7 km/h 30.6 km/h 52 % 0.0 mm
16:17 10.7 °C 1.8 °C 1026.6 hPa NNE 17.7 km/h 33.8 km/h 54 % 0.0 mm
16:22 10.2 °C 1.8 °C 1026.6 hPa NNE 22.5 km/h 33.8 km/h 56 % 0.0 mm
16:27 9.9 °C 1.3 °C 1027.0 hPa NNW 17.7 km/h 33.8 km/h 55 % 0.0 mm
16:37 10.2 °C 1.8 °C 1026.6 hPa NNE 20.9 km/h 32.2 km/h 56 % 0.0 mm
16:47 10.2 °C 1.3 °C 1027.0 hPa NNW 12.9 km/h 29.0 km/h 54 % 0.0 mm
16:52 10.0 °C 1.4 °C 1027.0 hPa NNW 14.5 km/h 29.0 km/h 55 % 0.0 mm
16:57 9.9 °C 0.8 °C 1027.0 hPa NW 12.9 km/h 29.0 km/h 53 % 0.0 mm
17:02 9.8 °C 1.4 °C 1027.0 hPa North 14.5 km/h 29.0 km/h 56 % 0.0 mm
17:12 9.8 °C 1.7 °C 1027.0 hPa North 9.7 km/h 32.2 km/h 57 % 0.0 mm
17:17 9.7 °C 2.1 °C 1027.0 hPa NNW 12.9 km/h 32.2 km/h 59 % 0.0 mm
17:22 9.4 °C 1.8 °C 1027.0 hPa NNW 17.7 km/h 25.7 km/h 59 % 0.0 mm
17:27 9.1 °C 1.3 °C 1027.0 hPa North 14.5 km/h 25.7 km/h 58 % 0.0 mm
17:32 9.3 °C 1.2 °C 1027.0 hPa NW 11.3 km/h 25.7 km/h 57 % 0.0 mm
17:37 9.4 °C 1.3 °C 1027.0 hPa NW 8.0 km/h 20.9 km/h 57 % 0.0 mm
17:42 9.5 °C 1.4 °C 1027.0 hPa North 11.3 km/h 22.5 km/h 57 % 0.0 mm
17:47 9.4 °C 1.6 °C 1027.0 hPa NNE 20.9 km/h 25.7 km/h 58 % 0.0 mm
17:52 9.6 °C 2.0 °C 1027.0 hPa NNW 4.8 km/h 25.7 km/h 59 % 0.0 mm
17:57 9.8 °C 1.9 °C 1027.0 hPa North 12.9 km/h 25.7 km/h 58 % 0.0 mm
18:02 9.9 °C 1.5 °C 1027.0 hPa NNW 12.9 km/h 25.7 km/h 56 % 0.0 mm
18:12 9.6 °C 1.0 °C 1027.0 hPa North 16.1 km/h 25.7 km/h 55 % 0.0 mm
18:17 9.5 °C 1.2 °C 1027.0 hPa NNW 17.7 km/h 25.7 km/h 56 % 0.0 mm
18:22 9.7 °C 1.1 °C 1027.0 hPa NW 8.0 km/h 25.7 km/h 55 % 0.0 mm
18:27 9.7 °C 0.3 °C 1027.0 hPa NNE 11.3 km/h 25.7 km/h 52 % 0.0 mm
18:32 9.7 °C 0.0 °C 1027.0 hPa North 19.3 km/h 20.9 km/h 51 % 0.0 mm
18:42 9.2 °C 1.6 °C 1027.0 hPa North 12.9 km/h 20.9 km/h 59 % 0.0 mm
18:52 8.4 °C 2.0 °C 1027.0 hPa East 8.0 km/h 32.2 km/h 64 % 0.0 mm
18:57 7.8 °C 2.1 °C 1027.3 hPa ENE 16.1 km/h 22.5 km/h 67 % 0.0 mm
19:07 7.2 °C 2.3 °C 1027.3 hPa ENE 6.4 km/h 17.7 km/h 71 % 0.0 mm
19:12 6.9 °C 2.2 °C 1027.3 hPa NE 6.4 km/h 16.1 km/h 72 % 0.0 mm
19:17 6.7 °C 2.2 °C 1027.3 hPa NE 4.8 km/h 17.7 km/h 73 % 0.0 mm
19:22 6.6 °C 2.3 °C 1027.3 hPa NE 4.8 km/h 17.7 km/h 74 % 0.0 mm
19:27 6.4 °C 2.1 °C 1027.7 hPa ENE 4.8 km/h 17.7 km/h 74 % 0.0 mm
19:32 6.3 °C 2.2 °C 1027.7 hPa NE 8.0 km/h 17.7 km/h 75 % 0.0 mm
19:37 6.2 °C 2.1 °C 1027.7 hPa NE 6.4 km/h 11.3 km/h 75 % 0.0 mm
19:42 6.2 °C 2.3 °C 1027.7 hPa NE 4.8 km/h 11.3 km/h 76 % 0.0 mm
19:47 6.2 °C 2.1 °C 1027.7 hPa NNE 8.0 km/h 11.3 km/h 75 % 0.0 mm
19:52 6.1 °C 2.2 °C 1027.7 hPa East 1.6 km/h 11.3 km/h 76 % 0.0 mm
19:57 6.0 °C 2.1 °C 1027.7 hPa NE 1.6 km/h 11.3 km/h 76 % 0.0 mm
20:02 6.1 °C 2.4 °C 1027.7 hPa ENE 1.6 km/h 11.3 km/h 77 % 0.0 mm
20:12 6.3 °C 2.4 °C 1027.7 hPa Calm   4.8 km/h 76 % 0.0 mm
20:17 6.2 °C 2.3 °C 1028.0 hPa Calm   3.2 km/h 76 % 0.0 mm
20:22 6.2 °C 2.3 °C 1028.0 hPa Calm   3.2 km/h 76 % 0.0 mm
20:32 5.8 °C 2.1 °C 1028.0 hPa Calm   3.2 km/h 77 % 0.0 mm
20:42 5.4 °C 2.1 °C 1028.0 hPa Calm   1.6 km/h 79 % 0.0 mm
20:47 5.3 °C 2.0 °C 1028.0 hPa Calm   1.6 km/h 79 % 0.0 mm
20:52 5.2 °C 2.0 °C 1028.3 hPa Calm   1.6 km/h 80 % 0.0 mm
20:57 5.1 °C 2.1 °C 1028.3 hPa Calm   3.2 km/h 81 % 0.0 mm
21:02 4.9 °C 1.7 °C 1028.3 hPa Calm   3.2 km/h 80 % 0.0 mm
21:07 4.7 °C 1.7 °C 1028.3 hPa Calm   3.2 km/h 81 % 0.0 mm
21:12 4.6 °C 1.8 °C 1028.3 hPa Calm   1.6 km/h 82 % 0.0 mm
21:17 4.7 °C 1.9 °C 1028.3 hPa Calm   1.6 km/h 82 % 0.0 mm
21:22 4.6 °C 1.6 °C 1028.3 hPa Calm   1.6 km/h 81 % 0.0 mm
21:27 4.6 °C 1.8 °C 1028.7 hPa Calm   1.6 km/h 82 % 0.0 mm
21:32 4.6 °C 1.8 °C 1028.7 hPa Calm   1.6 km/h 82 % 0.0 mm
21:37 4.4 °C 1.6 °C 1028.7 hPa Calm   3.2 km/h 82 % 0.0 mm
21:42 4.4 °C 1.6 °C 1028.7 hPa NW 1.6 km/h 3.2 km/h 82 % 0.0 mm
21:47 4.3 °C 1.5 °C 1028.7 hPa NW 1.6 km/h 3.2 km/h 82 % 0.0 mm
21:52 4.3 °C 1.5 °C 1028.7 hPa Calm   3.2 km/h 82 % 0.0 mm
22:02 3.9 °C 1.3 °C 1028.7 hPa Calm   4.8 km/h 83 % 0.0 mm
22:12 3.6 °C 1.2 °C 1028.7 hPa Calm   3.2 km/h 84 % 0.0 mm
22:17 3.6 °C 1.2 °C 1028.7 hPa NNE 1.6 km/h 4.8 km/h 84 % 0.0 mm
22:22 3.5 °C 1.1 °C 1028.7 hPa North 1.6 km/h 6.4 km/h 84 % 0.0 mm
22:27 3.4 °C 1.0 °C 1028.7 hPa NNE 1.6 km/h 6.4 km/h 84 % 0.0 mm
22:32 3.3 °C 1.0 °C 1029.0 hPa Calm   6.4 km/h 85 % 0.0 mm
22:37 3.4 °C 1.1 °C 1029.0 hPa Calm   6.4 km/h 85 % 0.0 mm
22:42 3.5 °C 1.2 °C 1029.0 hPa Calm   8.0 km/h 85 % 0.0 mm
22:47 3.6 °C 1.3 °C 1029.0 hPa Calm   8.0 km/h 85 % 0.0 mm
22:52 3.6 °C 1.2 °C 1029.0 hPa NNE 3.2 km/h 4.8 km/h 84 % 0.0 mm
22:57 3.6 °C 1.2 °C 1029.0 hPa Calm   4.8 km/h 84 % 0.0 mm
23:07 3.4 °C 1.0 °C 1029.0 hPa NNE 1.6 km/h 3.2 km/h 84 % 0.0 mm
23:12 3.4 °C 1.1 °C 1029.0 hPa NNE 1.6 km/h 4.8 km/h 85 % 0.0 mm
23:17 3.4 °C 1.1 °C 1029.0 hPa Calm   4.8 km/h 85 % 0.0 mm
23:22 3.5 °C 1.2 °C 1029.0 hPa Calm   4.8 km/h 85 % 0.0 mm
23:32 3.5 °C 1.1 °C 1029.0 hPa NNE 4.8 km/h 6.4 km/h 84 % 0.0 mm
23:37 3.7 °C 1.2 °C 1029.0 hPa NE 1.6 km/h 8.0 km/h 84 % 0.0 mm
23:42 3.9 °C 1.4 °C 1029.3 hPa Calm   9.7 km/h 84 % 0.0 mm
23:47 4.1 °C 1.5 °C 1029.3 hPa North 6.4 km/h 9.7 km/h 83 % 0.0 mm
23:52 4.0 °C 1.4 °C 1029.0 hPa NNE 6.4 km/h 11.3 km/h 83 % 0.0 mm
23:57 4.0 °C 1.4 °C 1029.3 hPa NNE 6.4 km/h 11.3 km/h 83 % 0.0 mm
Meteo18
Compliments of Weather Underground - 4 mb

Script developed by  Jim McMurry - jmcmurry@mwt.net Adapted for the template by  Wim van der Kuil - Leuven-Template.eu

You find our weather info also at:

European Weather Network

Weather Underground

Equipment we use:

Weather-station
Davis Vue

Weather-program
Meteohub

Weather-server
Raspberry PI 2 B+

Provider
1 and 1

Davis Vue

Meteohub

Raspberry PI 2 B+

1 and 1